Time;durP1;ratioP1;P1;durP2;ratioP2;P2;SDS_P1;SDS_P2;PMS_P1;PMS_P2;Temp;Humidity;BMP_temperature;BMP_pressure;BME280_temperature;BME280_humidity;BME280_pressure;Samples;Min_cycle;Max_cycle;Signal;HPM_P1;HPM_P2
2021/01/02 00:02:41;;;;;;;1.98;1.87;;;;;;;4.30;85.34;100017.48;1763615;80;21463;-69
2021/01/02 00:05:12;;;;;;;;;;;;;;;4.31;85.22;100022.19;1794649;80;21531;-68
2021/01/02 00:08:11;;;;;;;2.12;2.02;;;;;;;4.28;84.91;100023.56;1791892;80;21206;-69
2021/01/02 00:11:02;;;;;;;2.20;2.10;;;;;;;4.25;84.92;100033.52;1791809;80;21001;-68
2021/01/02 00:13:52;;;;;;;2.20;2.10;;;;;;;4.24;84.87;100037.44;1791781;80;21020;-70
2021/01/02 00:16:41;;;;;;;2.12;2.02;;;;;;;4.23;84.87;100044.32;1791863;80;21564;-67
2021/01/02 00:19:52;;;;;;;2.12;2.02;;;;;;;4.21;84.91;100044.81;1791542;80;21549;-67
2021/01/02 00:22:41;;;;;;;2.10;2.00;;;;;;;4.21;85.04;100047.83;1791831;80;22329;-67
2021/01/02 00:25:14;;;;;;;2.10;2.00;;;;;;;4.19;85.20;100063.78;1791845;80;21007;-68
2021/01/02 00:28:10;;;;;;;1.90;1.80;;;;;;;4.16;85.26;100066.45;1792187;80;21462;-68
2021/01/02 00:31:02;;;;;;;2.02;1.92;;;;;;;4.13;85.31;100068.67;1791989;80;21462;-68
2021/01/02 00:34:09;;;;;;;1.92;1.82;;;;;;;4.11;85.44;100073.47;1792039;80;21553;-69
2021/01/02 00:36:48;;;;;;;2.20;2.10;;;;;;;4.09;85.36;100072.67;1791610;80;21956;-68
2021/01/02 00:39:22;;;;;;;2.27;2.17;;;;;;;4.03;85.42;100080.97;1792026;80;21518;-69
2021/01/02 00:41:50;;;;;;;2.05;1.95;;;;;;;4.02;85.70;100075.86;1792020;80;21558;-69
2021/01/02 00:44:19;;;;;;;1.98;1.87;;;;;;;4.01;85.59;100077.59;1763798;80;21514;-68
2021/01/02 00:46:47;;;;;;;2.20;2.10;;;;;;;4.01;85.51;100082.74;1792053;80;21585;-69
2021/01/02 00:49:16;;;;;;;2.22;1.90;;;;;;;4.01;85.66;100083.19;1792068;80;22162;-69
2021/01/02 00:51:48;;;;;;;2.17;2.08;;;;;;;4.00;85.72;100084.08;1791984;80;21467;-69
2021/01/02 00:54:40;;;;;;;2.30;2.20;;;;;;;3.99;85.70;100084.99;1763139;80;21500;-69
2021/01/02 00:57:14;;;;;;;2.05;1.95;;;;;;;3.97;85.71;100086.77;1759248;80;21586;-68
2021/01/02 01:00:03;;;;;;;2.20;2.08;;;;;;;3.95;85.67;100089.83;1792112;80;21479;-68
2021/01/02 01:02:56;;;;;;;2.10;2.00;;;;;;;3.93;85.56;100102.75;1791767;80;22183;-68
2021/01/02 01:05:26;;;;;;;2.30;2.20;;;;;;;3.93;85.57;100104.05;1791993;80;21482;-68
2021/01/02 01:07:55;;;;;;;2.17;2.08;;;;;;;3.90;85.50;100111.85;1792014;80;20926;-68
2021/01/02 01:10:25;;;;;;;2.20;2.10;;;;;;;3.89;85.54;100108.03;1791974;80;21459;-68
2021/01/02 01:13:00;;;;;;;2.25;2.15;;;;;;;3.88;85.55;100117.93;1792165;80;21498;-69
2021/01/02 01:15:28;;;;;;;2.33;2.22;;;;;;;3.86;85.64;100121.84;1792118;80;22076;-69
2021/01/02 01:18:34;;;;;;;2.42;2.33;;;;;;;3.85;85.30;100123.16;1792087;80;21601;-68
2021/01/02 01:21:03;;;;;;;3.47;2.12;;;;;;;3.81;85.20;100127.55;1792067;80;21475;-68
2021/01/02 01:23:57;;;;;;;2.58;2.47;;;;;;;3.77;85.30;100134.95;1791905;80;21004;-70
2021/01/02 01:27:04;;;;;;;3.00;2.50;;;;;;;3.76;85.38;100133.71;1792025;80;21451;-66
2021/01/02 01:29:43;;;;;;;2.90;2.70;;;;;;;3.74;85.44;100144.05;1792077;80;22093;-68
2021/01/02 01:32:11;;;;;;;2.45;2.35;;;;;;;3.74;85.29;100143.20;1791171;80;21508;-67
2021/01/02 01:34:40;;;;;;;2.70;2.50;;;;;;;3.72;85.22;100146.27;1791982;80;21582;-69
2021/01/02 01:37:08;;;;;;;2.80;2.60;;;;;;;3.72;85.43;100148.84;1791944;80;21649;-68
2021/01/02 01:39:37;;;;;;;2.83;2.62;;;;;;;3.72;85.39;100155.27;1792043;80;21550;-68
2021/01/02 01:42:07;;;;;;;2.77;2.58;;;;;;;3.72;85.45;100153.98;1763632;80;22263;-69
2021/01/02 01:44:54;;;;;;;2.80;2.60;;;;;;;3.71;85.61;100163.89;1791921;80;21072;-69
2021/01/02 01:47:36;;;;;;;2.85;2.65;;;;;;;3.67;85.69;100161.83;1792000;80;21487;-69
2021/01/02 01:50:25;;;;;;;2.92;2.72;;;;;;;3.66;86.00;100169.16;1791980;80;20925;-69
2021/01/02 01:53:04;;;;;;;3.10;2.90;;;;;;;3.65;86.24;100173.89;1792085;80;21436;-69
2021/01/02 01:55:59;;;;;;;2.65;2.45;;;;;;;3.63;86.25;100177.80;1792081;80;22154;-69
2021/01/02 01:58:40;;;;;;;2.90;2.70;;;;;;;3.61;86.48;100173.57;1791984;80;21039;-68
2021/01/02 02:01:09;;;;;;;3.75;2.55;;;;;;;3.62;86.69;100177.84;1786556;78;20992;-68
2021/01/02 02:04:04;;;;;;;3.00;2.80;;;;;;;3.59;86.67;100181.36;1791852;80;21429;-69
2021/01/02 02:06:33;;;;;;;2.95;2.80;;;;;;;3.57;86.68;100180.55;1792030;80;21464;-70
2021/01/02 02:09:03;;;;;;;3.77;2.70;;;;;;;3.56;86.89;100184.45;1791985;80;21226;-69
2021/01/02 02:11:42;;;;;;;3.00;2.72;;;;;;;3.53;87.04;100193.09;1791870;80;20992;-69
2021/01/02 02:14:16;;;;;;;2.70;2.50;;;;;;;3.53;87.27;100198.25;1791996;80;21529;-68
2021/01/02 02:16:54;;;;;;;2.85;2.65;;;;;;;3.54;87.26;100205.09;1791976;80;21463;-70
2021/01/02 02:19:57;;;;;;;2.80;2.60;;;;;;;3.51;87.38;100199.16;1791985;80;21435;-69
2021/01/02 02:22:27;;;;;;;2.90;2.70;;;;;;;3.44;87.41;100208.77;1792040;80;22054;-69
2021/01/02 02:24:56;;;;;;;3.20;2.98;;;;;;;3.40;87.59;100212.73;1791782;80;20942;-68
2021/01/02 02:27:28;;;;;;;3.75;2.62;;;;;;;3.33;87.39;100206.44;1791956;78;20941;-69
2021/01/02 02:30:17;;;;;;;3.52;2.80;;;;;;;3.27;87.52;100215.59;1792028;80;21320;-69
2021/01/02 02:32:47;;;;;;;3.00;2.80;;;;;;;3.20;87.58;100208.89;1792000;80;20941;-68
2021/01/02 02:35:17;;;;;;;3.20;3.00;;;;;;;3.12;87.35;100214.68;1791967;80;21421;-68
2021/01/02 02:37:53;;;;;;;3.15;2.90;;;;;;;3.05;87.21;100229.00;1791962;80;20961;-69
2021/01/02 02:40:23;;;;;;;3.30;3.00;;;;;;;2.96;87.13;100221.88;1791963;80;21538;-69
2021/01/02 02:43:01;;;;;;;3.30;3.10;;;;;;;2.88;87.06;100229.36;1792017;80;21640;-68
2021/01/02 02:45:31;;;;;;;4.15;2.92;;;;;;;2.79;87.00;100232.15;1791997;80;21434;-68
2021/01/02 02:48:10;;;;;;;3.00;2.80;;;;;;;2.68;87.24;100240.92;1791992;80;22088;-68
2021/01/02 02:50:38;;;;;;;3.58;3.27;;;;;;;2.61;87.30;100241.92;1791873;80;21032;-67
2021/01/02 02:53:10;;;;;;;4.53;4.10;;;;;;;2.54;87.31;100240.35;1791905;80;21507;-68
2021/01/02 02:55:40;;;;;;;3.40;3.20;;;;;;;2.50;87.39;100245.58;1791942;80;21578;-68
2021/01/02 02:58:08;;;;;;;3.52;3.22;;;;;;;2.43;87.50;100248.70;1791949;80;21016;-68
2021/01/02 03:00:37;;;;;;;3.00;2.80;;;;;;;2.38;87.69;100264.68;1791948;80;21958;-69
2021/01/02 03:03:10;;;;;;;3.95;3.40;;;;;;;2.35;87.90;100258.31;1791828;80;20945;-69
2021/01/02 03:05:40;;;;;;;3.92;3.62;;;;;;;2.32;88.02;100257.93;1791938;80;21423;-69
2021/01/02 03:08:08;;;;;;;3.10;2.90;;;;;;;2.29;88.17;100272.55;1791881;80;21622;-68
2021/01/02 03:10:36;;;;;;;4.08;3.77;;;;;;;2.26;88.27;100268.32;1791926;78;21479;-69
2021/01/02 03:13:05;;;;;;;3.80;3.50;;;;;;;2.23;88.30;100279.94;1791926;80;21957;-69
2021/01/02 03:15:39;;;;;;;3.58;3.30;;;;;;;2.21;88.45;100275.70;1791869;80;21511;-68
2021/01/02 03:18:12;;;;;;;3.92;3.58;;;;;;;2.19;88.59;100278.30;1791882;80;21479;-69
2021/01/02 03:20:41;;;;;;;3.98;3.65;;;;;;;2.20;88.67;100284.28;1791991;80;21581;-68
2021/01/02 03:23:09;;;;;;;4.55;4.15;;;;;;;2.19;88.62;100280.86;1791892;80;21561;-68
2021/01/02 03:25:38;;;;;;;3.67;3.33;;;;;;;2.18;88.54;100288.59;1791916;80;21241;-69
2021/01/02 03:28:06;;;;;;;7.22;4.10;;;;;;;2.16;88.55;100292.91;1791876;80;21487;-68
2021/01/02 03:30:35;;;;;;;3.65;3.30;;;;;;;2.14;88.59;100294.66;1791982;80;21476;-68
2021/01/02 03:33:03;;;;;;;3.77;3.47;;;;;;;2.14;88.64;100298.52;1791865;80;21479;-69
2021/01/02 03:35:32;;;;;;;3.37;3.17;;;;;;;2.12;88.74;100298.53;1792035;80;21032;-68
2021/01/02 03:38:00;;;;;;;4.12;3.83;;;;;;;2.13;88.86;100304.09;1791833;80;22240;-69
2021/01/02 03:40:29;;;;;;;3.77;3.47;;;;;;;2.15;88.89;100301.49;1763667;80;21594;-69
2021/01/02 03:42:58;;;;;;;3.67;3.37;;;;;;;2.17;89.01;100309.58;1791922;80;21612;-69
2021/01/02 03:45:26;;;;;;;3.95;3.52;;;;;;;2.20;89.06;100313.82;1791853;80;21490;-69
2021/01/02 03:47:55;;;;;;;4.62;4.22;;;;;;;2.22;89.04;100307.78;1791915;80;21482;-69
2021/01/02 03:50:23;;;;;;;7.70;5.65;;;;;;;2.23;88.87;100310.77;1791907;80;22162;-69
2021/01/02 03:52:51;;;;;;;8.05;6.30;;;;;;;2.22;88.78;100325.77;1791841;80;21590;-68
2021/01/02 03:55:20;;;;;;;6.92;6.22;;;;;;;2.20;88.73;100324.09;1791838;80;21573;-68
2021/01/02 03:57:49;;;;;;;5.53;4.92;;;;;;;2.20;88.81;100326.67;1791844;80;21506;-69
2021/01/02 04:00:19;;;;;;;5.55;5.05;;;;;;;2.21;88.94;100335.63;1791995;80;21644;-68
2021/01/02 04:02:47;;;;;;;5.65;4.60;;;;;;;2.23;89.08;100342.03;1791912;80;22038;-69
2021/01/02 04:05:16;;;;;;;4.47;4.08;;;;;;;2.25;89.22;100341.56;1791702;78;21551;-69
2021/01/02 04:07:44;;;;;;;4.17;3.87;;;;;;;2.28;89.18;100351.80;1791851;80;21502;-69
2021/01/02 04:10:13;;;;;;;3.87;3.58;;;;;;;2.29;89.19;100349.64;1791840;80;21471;-69
2021/01/02 04:12:42;;;;;;;4.47;3.62;;;;;;;2.29;89.19;100362.05;1792013;80;20997;-68
2021/01/02 04:15:11;;;;;;;4.85;4.45;;;;;;;2.29;89.32;100371.04;1791896;80;22150;-68
2021/01/02 04:17:41;;;;;;;3.90;3.60;;;;;;;2.30;89.33;100368.03;1791876;80;20989;-68
2021/01/02 04:20:11;;;;;;;4.58;3.77;;;;;;;2.31;89.53;100377.00;1791855;80;21538;-68
2021/01/02 04:22:40;;;;;;;4.25;3.90;;;;;;;2.34;89.74;100385.09;1791783;80;20989;-69
2021/01/02 04:25:09;;;;;;;4.70;4.30;;;;;;;2.37;89.82;100384.20;1791874;80;21661;-68
2021/01/02 04:27:38;;;;;;;4.70;4.30;;;;;;;2.39;89.96;100391.02;1791899;80;21640;-68
2021/01/02 04:30:07;;;;;;;4.70;4.30;;;;;;;2.43;89.96;100404.19;1791837;80;21470;-68
2021/01/02 04:32:36;;;;;;;4.95;4.40;;;;;;;2.45;90.25;100403.73;1791873;80;20962;-68
2021/01/02 04:35:06;;;;;;;4.83;4.37;;;;;;;2.48;90.41;100400.26;1791805;80;21470;-68
2021/01/02 04:37:34;;;;;;;4.20;3.90;;;;;;;2.51;90.60;100407.48;1791976;80;20906;-68
2021/01/02 04:40:03;;;;;;;4.25;3.80;;;;;;;2.56;90.87;100410.82;1791886;80;22160;-67
2021/01/02 04:42:33;;;;;;;4.25;3.85;;;;;;;2.61;90.80;100410.75;1791728;80;21060;-68
2021/01/02 04:45:03;;;;;;;4.72;4.33;;;;;;;2.64;90.89;100408.97;1791843;80;21539;-66
2021/01/02 04:47:31;;;;;;;5.37;4.85;;;;;;;2.68;90.88;100412.34;1791689;80;20957;-67
2021/01/02 04:50:00;;;;;;;6.67;5.28;;;;;;;2.71;90.85;100411.44;1791876;80;21557;-68
2021/01/02 04:52:28;;;;;;;4.95;4.50;;;;;;;2.74;90.79;100415.24;1791828;80;21414;-68
2021/01/02 04:54:57;;;;;;;5.22;4.28;;;;;;;2.77;90.88;100417.77;1791808;80;20941;-69
2021/01/02 04:57:26;;;;;;;4.03;3.72;;;;;;;2.82;91.00;100416.77;1791844;78;21005;-68
2021/01/02 04:59:55;;;;;;;3.92;3.62;;;;;;;2.88;90.68;100419.67;1738748;80;21507;-69
2021/01/02 05:02:23;;;;;;;4.10;3.77;;;;;;;2.91;90.35;100419.61;1791861;80;21554;-69
2021/01/02 05:04:52;;;;;;;4.67;3.83;;;;;;;2.96;89.96;100413.95;1786182;80;22151;-68
2021/01/02 05:07:30;;;;;;;4.30;3.90;;;;;;;3.00;89.35;100431.88;1774652;80;21527;-67
2021/01/02 05:09:58;;;;;;;4.47;4.08;;;;;;;3.03;88.43;100428.39;1774883;80;21041;-68
2021/01/02 05:12:32;;;;;;;3.98;3.67;;;;;;;3.05;87.90;100438.22;1774858;80;21356;-69
2021/01/02 05:15:10;;;;;;;4.03;3.62;;;;;;;3.06;87.38;100446.78;1774878;80;20975;-69
2021/01/02 05:17:41;;;;;;;4.08;3.77;;;;;;;3.09;86.73;100451.88;1774872;79;21254;-69
2021/01/02 05:20:14;;;;;;;5.83;4.67;;;;;;;3.12;86.19;100455.68;1774764;80;21025;-70
2021/01/02 05:22:43;;;;;;;4.20;3.80;;;;;;;3.13;85.57;100463.81;1774822;80;20918;-70
2021/01/02 05:25:19;;;;;;;5.10;4.60;;;;;;;3.13;85.22;100473.66;1774795;79;21009;-70
2021/01/02 05:27:50;;;;;;;5.70;4.83;;;;;;;3.13;85.13;100468.95;1774959;80;21021;-69
2021/01/02 05:30:26;;;;;;;4.67;4.28;;;;;;;3.15;85.09;100479.62;1774973;80;21432;-69
2021/01/02 05:33:07;;;;;;;5.92;4.53;;;;;;;3.16;85.00;100478.75;1775041;80;21492;-69
2021/01/02 05:35:40;;;;;;;5.50;4.70;;;;;;;3.18;84.47;100484.72;1774937;80;21464;-68
2021/01/02 05:38:22;;;;;;;5.08;4.58;;;;;;;3.18;84.22;100483.44;1774813;80;21041;-68
2021/01/02 05:40:58;;;;;;;5.03;4.55;;;;;;;3.20;84.22;100491.13;1774412;79;21555;-69
2021/01/02 05:43:28;;;;;;;5.78;5.03;;;;;;;3.22;83.93;100491.92;1774787;80;21267;-65
2021/01/02 05:45:57;;;;;;;5.72;4.53;;;;;;;3.21;83.85;100494.92;1774789;80;20969;-66
2021/01/02 05:48:28;;;;;;;6.80;5.40;;;;;;;3.21;83.92;100501.80;1774910;80;20941;-64
2021/01/02 05:51:00;;;;;;;5.65;4.97;;;;;;;3.21;83.63;100500.52;1774886;80;21488;-67
2021/01/02 05:53:34;;;;;;;5.72;5.12;;;;;;;3.22;83.83;100503.50;1774961;80;21557;-65
2021/01/02 05:56:12;;;;;;;6.83;5.42;;;;;;;3.25;83.98;100509.88;1774879;80;22179;-65
2021/01/02 05:58:44;;;;;;;8.85;4.80;;;;;;;3.27;83.84;100517.98;1774762;80;21009;-68
2021/01/02 06:01:17;;;;;;;9.90;5.83;;;;;;;3.29;83.81;100517.95;1774937;80;21333;-68
2021/01/02 06:03:49;;;;;;;6.20;5.42;;;;;;;3.32;83.75;100521.75;1774863;80;21368;-68
2021/01/02 06:06:19;;;;;;;8.93;5.30;;;;;;;3.33;83.66;100521.73;1788049;79;21016;-67
2021/01/02 06:08:50;;;;;;;6.45;5.55;;;;;;;3.36;83.61;100523.40;1792029;80;22189;-68
2021/01/02 06:11:21;;;;;;;6.45;5.85;;;;;;;3.38;83.49;100528.52;1792028;80;21509;-68
2021/01/02 06:13:51;;;;;;;6.03;4.80;;;;;;;3.39;83.43;100528.93;1791985;80;21435;-68
2021/01/02 06:16:20;;;;;;;5.80;4.80;;;;;;;3.42;83.35;100531.01;1791938;80;21004;-68
2021/01/02 06:18:49;;;;;;;7.80;6.12;;;;;;;3.45;83.32;100536.54;1791967;80;20996;-68
2021/01/02 06:21:19;;;;;;;5.53;4.70;;;;;;;3.48;83.00;100545.05;1791916;80;22175;-64
2021/01/02 06:23:47;;;;;;;5.20;4.70;;;;;;;3.47;82.59;100543.36;1791852;80;20957;-67
2021/01/02 06:26:16;;;;;;;5.85;5.00;;;;;;;3.45;82.58;100546.40;1791930;80;20929;-65
2021/01/02 06:28:45;;;;;;;6.80;5.92;;;;;;;3.44;82.24;100554.15;1791930;80;21498;-68
2021/01/02 06:31:15;;;;;;;7.45;5.85;;;;;;;3.40;82.23;100560.23;1792043;80;21466;-68
2021/01/02 06:33:48;;;;;;;8.95;5.90;;;;;;;3.40;82.00;100566.66;1791925;80;21137;-68
2021/01/02 06:36:36;;;;;;;9.25;6.55;;;;;;;3.39;81.78;100567.10;1791869;80;21005;-68
2021/01/02 06:39:20;;;;;;;9.48;6.45;;;;;;;3.39;81.56;100574.83;1792003;78;20941;-68
2021/01/02 06:41:53;;;;;;;6.25;5.65;;;;;;;3.37;81.23;100575.29;1791829;80;20992;-68
2021/01/02 06:44:42;;;;;;;9.43;6.28;;;;;;;3.34;80.47;100587.77;1791907;80;20906;-68
2021/01/02 06:47:22;;;;;;;10.23;6.87;;;;;;;3.31;79.73;100585.69;1792047;80;22157;-68
2021/01/02 06:49:53;;;;;;;9.75;6.53;;;;;;;3.27;79.34;100594.34;1791958;80;21581;-67
2021/01/02 06:52:33;;;;;;;8.38;6.55;;;;;;;3.24;79.15;100599.09;1791927;80;21590;-68
2021/01/02 06:55:24;;;;;;;9.53;6.75;;;;;;;3.21;79.06;100599.15;1791894;80;21546;-69
2021/01/02 06:57:53;;;;;;;9.43;7.15;;;;;;;3.20;79.00;100605.64;1792025;80;21423;-65
2021/01/02 07:00:27;;;;;;;11.35;8.73;;;;;;;3.16;78.98;100609.14;1787744;80;22167;-69
2021/01/02 07:02:56;;;;;;;9.30;7.25;;;;;;;3.12;79.06;100614.77;1791871;80;20957;-68
2021/01/02 07:05:48;;;;;;;12.58;9.05;;;;;;;3.11;79.36;100626.38;1791139;80;21491;-68
2021/01/02 07:08:43;;;;;;;14.50;8.95;;;;;;;3.11;79.48;100628.51;1789422;80;20973;-65
2021/01/02 07:11:35;;;;;;;8.08;7.28;;;;;;;3.13;79.59;100639.63;1765893;80;21557;-69
2021/01/02 07:14:15;;;;;;;10.38;7.08;;;;;;;3.14;79.62;100632.75;1789404;80;21373;-65
2021/01/02 07:16:55;;;;;;;7.97;6.87;;;;;;;3.13;79.32;100643.48;1789403;80;21356;-67
2021/01/02 07:19:34;;;;;;;10.68;8.30;;;;;;;3.15;79.59;100647.32;1789372;80;20970;-68
2021/01/02 07:22:20;;;;;;;8.40;7.35;;;;;;;3.16;79.58;100651.16;1789387;80;20969;-68
2021/01/02 07:24:58;;;;;;;9.90;7.15;;;;;;;3.20;79.69;100652.78;1789313;80;21021;-64
2021/01/02 07:27:37;;;;;;;8.53;7.33;;;;;;;3.23;79.58;100651.88;1761494;80;22933;-68
2021/01/02 07:30:13;;;;;;;9.03;7.22;;;;;;;3.25;79.59;100656.12;1789348;80;21028;-69
2021/01/02 07:32:44;;;;;;;8.38;7.00;;;;;;;3.30;79.48;100658.63;1789395;80;21107;-69
2021/01/02 07:35:14;;;;;;;9.90;7.50;;;;;;;3.32;79.46;100664.61;1789448;80;21657;-69
2021/01/02 07:37:44;;;;;;;8.95;6.58;;;;;;;3.33;79.44;100662.01;1789402;80;20989;-70
2021/01/02 07:40:18;;;;;;;9.58;7.42;;;;;;;3.34;78.87;100673.16;1789370;78;21190;-70
2021/01/02 07:42:54;;;;;;;9.48;7.00;;;;;;;3.35;78.51;100674.85;1789407;80;21325;-68
2021/01/02 07:45:24;;;;;;;9.90;7.83;;;;;;;3.37;78.14;100682.55;1789628;79;21446;-65
2021/01/02 07:47:58;;;;;;;9.88;7.87;;;;;;;3.38;78.23;100686.39;1789461;80;21495;-63
2021/01/02 07:50:28;;;;;;;9.63;7.75;;;;;;;3.40;78.08;100690.23;1789426;79;21005;-67
2021/01/02 07:53:04;;;;;;;9.93;7.10;;;;;;;3.43;77.92;100689.73;1789420;80;21137;-69
2021/01/02 07:55:33;;;;;;;8.85;7.70;;;;;;;3.44;77.46;100695.73;1789444;80;21458;-68
2021/01/02 07:58:03;;;;;;;9.93;7.70;;;;;;;3.45;77.37;100693.14;1789362;80;20921;-69
2021/01/02 08:00:32;;;;;;;9.70;7.72;;;;;;;3.48;77.26;100702.54;1789335;80;21561;-69
2021/01/02 08:03:04;;;;;;;10.45;8.50;;;;;;;3.52;76.93;100697.32;1789344;80;21411;-67
2021/01/02 08:05:33;;;;;;;9.95;8.13;;;;;;;3.56;76.91;100699.41;1786618;79;21266;-69
2021/01/02 08:08:02;;;;;;;10.15;7.55;;;;;;;3.57;76.76;100702.39;1774704;80;21615;-67
2021/01/02 08:10:31;;;;;;;9.35;7.90;;;;;;;3.59;76.79;100708.37;1774787;80;21443;-69
2021/01/02 08:13:04;;;;;;;10.05;7.40;;;;;;;3.62;76.82;100713.44;1774701;80;21551;-68
2021/01/02 08:15:35;;;;;;;12.63;7.95;;;;;;;3.62;76.57;100719.44;1774643;80;21463;-68
2021/01/02 08:18:08;;;;;;;9.25;7.25;;;;;;;3.65;76.42;100727.12;1774750;80;21364;-69
2021/01/02 08:20:37;;;;;;;10.18;7.60;;;;;;;3.68;76.16;100732.66;1774684;80;21380;-69
2021/01/02 08:23:14;;;;;;;9.85;7.80;;;;;;;3.69;76.22;100736.49;1774339;80;20981;-69
2021/01/02 08:25:45;;;;;;;9.05;7.25;;;;;;;3.73;76.12;100730.85;1774730;80;21420;-69
2021/01/02 08:28:14;;;;;;;9.43;7.00;;;;;;;3.76;75.69;100738.53;1774744;80;21563;-70
2021/01/02 08:30:42;;;;;;;8.73;7.50;;;;;;;3.78;75.53;100733.35;1774755;80;22087;-69
2021/01/02 08:33:12;;;;;;;8.83;7.42;;;;;;;3.79;75.62;100744.92;1774663;80;21574;-68
2021/01/02 08:35:43;;;;;;;9.03;7.25;;;;;;;3.83;75.98;100745.28;1753615;80;21452;-69
2021/01/02 08:38:12;;;;;;;8.45;7.28;;;;;;;3.87;75.60;100749.52;1774697;80;21032;-68
2021/01/02 08:40:43;;;;;;;10.23;7.90;;;;;;;3.94;75.52;100747.24;1774545;80;21658;-68
2021/01/02 08:43:25;;;;;;;9.25;8.25;;;;;;;3.99;75.21;100748.45;1774817;80;21296;-70
2021/01/02 08:46:00;;;;;;;9.08;7.37;;;;;;;4.02;75.28;100757.39;1774863;80;21507;-68
2021/01/02 08:48:29;;;;;;;9.95;7.67;;;;;;;4.05;75.17;100761.64;1775134;79;21017;-70
2021/01/02 08:50:58;;;;;;;11.18;8.65;;;;;;;4.06;74.65;100755.17;1774823;80;21456;-69
2021/01/02 08:53:28;;;;;;;8.53;7.37;;;;;;;4.04;74.21;100756.92;1774987;80;21531;-70
2021/01/02 08:55:58;;;;;;;9.55;7.58;;;;;;;4.04;74.39;100760.79;1775005;80;22110;-70
2021/01/02 08:58:31;;;;;;;7.72;6.70;;;;;;;4.06;74.12;100765.91;1774843;80;20946;-69
2021/01/02 09:01:00;;;;;;;8.20;7.28;;;;;;;4.06;74.12;100771.07;1774864;80;20942;-69
2021/01/02 09:03:28;;;;;;;9.65;7.80;;;;;;;4.09;74.43;100779.59;1774783;80;21619;-70
2021/01/02 09:05:57;;;;;;;11.08;9.35;;;;;;;4.13;74.23;100776.53;1778042;80;21444;-68
2021/01/02 09:08:27;;;;;;;9.70;7.95;;;;;;;4.15;74.14;100777.36;1791993;80;21357;-69
2021/01/02 09:10:56;;;;;;;9.28;8.05;;;;;;;4.19;74.08;100773.84;1792125;80;20969;-67
2021/01/02 09:13:27;;;;;;;11.53;7.87;;;;;;;4.22;74.15;100777.66;1792000;80;20937;-69
2021/01/02 09:16:06;;;;;;;9.53;8.33;;;;;;;4.27;74.13;100784.88;1791861;80;21507;-70
2021/01/02 09:18:37;;;;;;;11.10;8.43;;;;;;;4.30;74.08;100791.27;1792105;80;21467;-69
2021/01/02 09:21:15;;;;;;;9.35;8.33;;;;;;;4.27;73.50;100791.31;1791976;80;21242;-69
2021/01/02 09:23:45;;;;;;;11.40;9.40;;;;;;;4.25;73.33;100802.09;1787693;80;20949;-69
2021/01/02 09:26:27;;;;;;;10.88;9.18;;;;;;;4.21;73.46;100806.89;1792010;80;21488;-69
2021/01/02 09:28:58;;;;;;;10.85;9.48;;;;;;;4.20;73.33;100804.75;1791850;80;21471;-69
2021/01/02 09:31:35;;;;;;;16.48;9.80;;;;;;;4.18;73.22;100812.10;1792061;80;21613;-66
2021/01/02 09:34:03;;;;;;;10.60;8.70;;;;;;;4.16;73.45;100815.99;1791986;80;21202;-69
2021/01/02 09:36:32;;;;;;;12.20;10.18;;;;;;;4.15;73.81;100813.00;1791945;80;21585;-69
2021/01/02 09:39:01;;;;;;;10.68;9.08;;;;;;;4.13;73.86;100807.46;1791959;80;20929;-68
2021/01/02 09:41:29;;;;;;;13.60;9.38;;;;;;;4.07;73.82;100810.98;1791945;80;21637;-68
2021/01/02 09:43:57;;;;;;;11.57;9.35;;;;;;;4.06;73.83;100810.58;1792045;80;21471;-68
2021/01/02 09:46:28;;;;;;;13.60;9.35;;;;;;;4.06;74.20;100809.73;1791952;80;22167;-68
2021/01/02 09:48:57;;;;;;;11.60;8.90;;;;;;;4.05;74.28;100802.87;1791992;80;21499;-67
2021/01/02 09:51:29;;;;;;;11.15;9.18;;;;;;;4.03;74.67;100807.61;1791936;80;20934;-69
2021/01/02 09:53:57;;;;;;;11.20;9.03;;;;;;;4.06;75.15;100804.57;1792014;80;21482;-68
2021/01/02 09:56:26;;;;;;;12.05;9.28;;;;;;;4.07;74.60;100804.98;1791980;80;21586;-68
2021/01/02 09:58:55;;;;;;;10.85;9.60;;;;;;;4.04;74.58;100803.31;1791970;80;21174;-68
2021/01/02 10:01:24;;;;;;;14.93;11.40;;;;;;;4.03;74.77;100805.47;1791844;80;20925;-68
2021/01/02 10:03:52;;;;;;;17.62;12.88;;;;;;;3.99;74.84;100814.16;1791888;80;21590;-68
2021/01/02 10:06:21;;;;;;;15.08;12.23;;;;;;;3.97;74.94;100811.61;1788293;80;21480;-69
2021/01/02 10:08:50;;;;;;;15.25;11.03;;;;;;;3.94;75.01;100810.80;1774802;80;21535;-69
2021/01/02 10:11:18;;;;;;;13.80;11.38;;;;;;;3.91;74.86;100823.30;1774826;80;22237;-69
2021/01/02 10:13:47;;;;;;;14.75;11.80;;;;;;;3.90;74.99;100823.33;1774744;80;20961;-68
2021/01/02 10:16:18;;;;;;;14.58;11.90;;;;;;;3.87;75.19;100820.36;1774790;80;21377;-69
2021/01/02 10:18:46;;;;;;;13.62;11.78;;;;;;;3.87;75.12;100833.23;1774759;80;21563;-66
2021/01/02 10:21:14;;;;;;;14.65;11.28;;;;;;;3.85;75.18;100838.85;1774775;80;21496;-64
2021/01/02 10:23:43;;;;;;;12.95;10.63;;;;;;;3.81;75.19;100828.18;1774750;80;22064;-68
2021/01/02 10:26:24;;;;;;;14.45;10.63;;;;;;;3.81;75.00;100825.60;1773955;80;21523;-69
2021/01/02 10:28:52;;;;;;;20.82;12.05;;;;;;;3.76;74.64;100823.97;1773610;80;21049;-68
2021/01/02 10:31:22;;;;;;;16.62;12.80;;;;;;;3.71;74.61;100818.03;1774724;80;21582;-69
2021/01/02 10:33:50;;;;;;;15.23;11.73;;;;;;;3.69;74.88;100811.62;1774772;80;21017;-69
2021/01/02 10:36:19;;;;;;;15.43;12.25;;;;;;;3.70;74.99;100813.32;1774882;80;22165;-69
2021/01/02 10:38:48;;;;;;;16.57;11.88;;;;;;;3.71;74.85;100806.45;1774837;80;21495;-68
2021/01/02 10:41:16;;;;;;;12.33;10.10;;;;;;;3.73;74.69;100813.28;1774739;80;21464;-66
2021/01/02 10:43:45;;;;;;;13.18;10.55;;;;;;;3.75;74.77;100809.39;1774707;80;21511;-68
2021/01/02 10:46:13;;;;;;;14.63;12.13;;;;;;;3.76;74.73;100817.09;1774918;79;21572;-66
2021/01/02 10:48:42;;;;;;;16.57;11.57;;;;;;;3.78;74.52;100823.08;1774788;80;22158;-66
2021/01/02 10:51:18;;;;;;;12.25;10.30;;;;;;;3.77;74.60;100827.81;1774800;80;21543;-67
2021/01/02 10:53:46;;;;;;;14.45;10.53;;;;;;;3.78;74.51;100828.66;1775071;80;20941;-69
2021/01/02 10:56:18;;;;;;;15.00;12.82;;;;;;;3.78;74.47;100830.80;1774703;80;21527;-70
2021/01/02 10:58:47;;;;;;;13.25;11.10;;;;;;;3.78;74.56;100837.67;1774918;80;21345;-70
2021/01/02 11:01:16;;;;;;;13.72;12.07;;;;;;;3.77;74.67;100844.98;1774843;80;22066;-70
2021/01/02 11:03:44;;;;;;;20.88;12.78;;;;;;;3.75;75.12;100847.59;1774694;80;21532;-70
2021/01/02 11:06:15;;;;;;;16.48;12.58;;;;;;;3.73;75.10;100854.48;1774740;80;21459;-67
2021/01/02 11:08:45;;;;;;;12.78;10.80;;;;;;;3.71;75.18;100852.81;1789443;80;21360;-68
2021/01/02 11:11:23;;;;;;;12.60;9.58;;;;;;;3.68;75.24;100853.27;1761753;80;20945;-68
2021/01/02 11:13:51;;;;;;;13.05;10.53;;;;;;;3.66;75.34;100855.02;1789503;80;22075;-69
2021/01/02 11:16:21;;;;;;;12.50;10.40;;;;;;;3.60;75.14;100864.55;1789317;80;21586;-68
2021/01/02 11:18:50;;;;;;;13.98;10.95;;;;;;;3.55;75.31;100860.78;1737498;80;21578;-69
2021/01/02 11:21:20;;;;;;;14.07;11.40;;;;;;;3.55;75.59;100859.92;1789361;80;20957;-69
2021/01/02 11:23:50;;;;;;;13.22;10.85;;;;;;;3.56;75.98;100864.20;1789402;80;21575;-68
2021/01/02 11:26:18;;;;;;;16.10;11.10;;;;;;;3.60;76.04;100860.69;1789421;80;21507;-68
2021/01/02 11:28:46;;;;;;;22.37;16.77;;;;;;;3.62;75.99;100858.94;1789391;80;21506;-67
2021/01/02 11:31:15;;;;;;;17.85;12.60;;;;;;;3.65;76.43;100863.61;1789363;80;21476;-68
2021/01/02 11:33:43;;;;;;;14.75;11.60;;;;;;;3.68;76.87;100849.41;1789369;80;21478;-68
2021/01/02 11:36:11;;;;;;;19.32;14.65;;;;;;;3.74;76.98;100853.61;1789393;80;21577;-68
2021/01/02 11:38:40;;;;;;;21.35;15.55;;;;;;;3.78;76.56;100863.00;1789498;80;21979;-67
2021/01/02 11:41:08;;;;;;;16.73;13.08;;;;;;;3.80;76.34;100863.83;1789299;80;21526;-68
2021/01/02 11:43:36;;;;;;;15.50;12.63;;;;;;;3.82;76.27;100867.67;1789354;80;21356;-68
2021/01/02 11:46:05;;;;;;;14.58;11.75;;;;;;;3.84;76.30;100872.36;1789359;80;21593;-68
2021/01/02 11:48:36;;;;;;;16.73;12.18;;;;;;;3.85;76.52;100871.05;1789376;80;21557;-68
2021/01/02 11:51:03;;;;;;;16.37;12.60;;;;;;;3.87;76.37;100874.46;1789482;80;22061;-68
2021/01/02 11:53:32;;;;;;;15.68;12.40;;;;;;;3.88;76.34;100874.88;1789311;80;21537;-68
2021/01/02 11:56:01;;;;;;;17.30;12.98;;;;;;;3.88;76.55;100871.01;1789316;80;21427;-69
2021/01/02 11:58:29;;;;;;;16.40;12.13;;;;;;;3.90;76.54;100876.14;1789349;80;21593;-69